^^
Meteo Knjazevac Station Historical Data
Daily Summary for October 11, 2021 Units:  Both    English   Metric
Daily Weekly Monthly Yearly Custom
  High: Low: Average:
Temperature: 46.2 °F /  7.9 °C 44.8 °F /  7.1 °C 45.4 °F /  7.4 °C
Dew Point: 45.7 °F /  7.6 °C 44.3 °F /  6.8 °C 45.1 °F /  7.3 °C
Humidity: 99% 98% 99%
Wind Speed: 9mph /  14.5km/h - 6mph /  9.7km/h
Wind Gust: 19mph /  30.6km/h - -
Wind- - SSE
Pressure: 30.21 in /  1022.9 hPa 30.16 in /  1021.2 hPa -
Precipitation: 0.01 in /  0.25 mm    
Historical Graphs
 
 
Tabular Data for October 11, 2021
Time Temperature Dew Point Pressure Wind Wind Speed Wind Gust Humidity Rainfall Rate (Hourly) solar Conditions
00:00 46.2 °F /  7.9 °C 45.7 °F /  7.6 °C 30.21in /  1022.9hPa North 5mph /  8km/h 14mph /  22.5km/h 98% 0.00in /  0mm 0 W/m2
00:10 46.2 °F /  7.9 °C 45.7 °F /  7.6 °C 30.21in /  1022.9hPa North 6mph /  9.7km/h 13mph /  20.9km/h 98% 0.00in /  0mm 0 W/m2
00:20 46 °F /  7.8 °C 45.5 °F /  7.5 °C 30.21in /  1022.9hPa North 6mph /  9.7km/h 14mph /  22.5km/h 98% 0.00in /  0mm 0 W/m2
00:30 45.9 °F /  7.7 °C 45.3 °F /  7.4 °C 30.20in /  1022.6hPa North 6mph /  9.7km/h 12mph /  19.3km/h 98% 0.00in /  0mm 0 W/m2
00:40 45.7 °F /  7.6 °C 45.4 °F /  7.4 °C 30.20in /  1022.6hPa North 6mph /  9.7km/h 12mph /  19.3km/h 99% 0.00in /  0mm 0 W/m2
00:50 45.7 °F /  7.6 °C 45.4 °F /  7.4 °C 30.20in /  1022.6hPa North 5mph /  8km/h 12mph /  19.3km/h 99% 0.00in /  0mm 0 W/m2
01:00 45.6 °F /  7.6 °C 45.3 °F /  7.4 °C 30.19in /  1022.2hPa North 7mph /  11.3km/h 14mph /  22.5km/h 99% 0.00in /  0mm 0 W/m2
01:10 45.5 °F /  7.5 °C 45.2 °F /  7.3 °C 30.19in /  1022.2hPa North 6mph /  9.7km/h 14mph /  22.5km/h 99% 0.00in /  0mm 0 W/m2
01:20 45.3 °F /  7.4 °C 45.1 °F /  7.3 °C 30.19in /  1022.2hPa North 5mph /  8km/h 14mph /  22.5km/h 99% 0.00in /  0mm 0 W/m2
01:30 45.3 °F /  7.4 °C 45.1 °F /  7.3 °C 30.19in /  1022.2hPa North 2mph /  3.2km/h 13mph /  20.9km/h 99% 0.00in /  0mm 0 W/m2
01:40 45.3 °F /  7.4 °C 45.1 °F /  7.3 °C 30.19in /  1022.2hPa North 3mph /  4.8km/h 13mph /  20.9km/h 99% 0.00in /  0mm 0 W/m2
01:50 45.3 °F /  7.4 °C 45.1 °F /  7.3 °C 30.19in /  1022.2hPa North 5mph /  8km/h 13mph /  20.9km/h 99% 0.00in /  0mm 0 W/m2
02:00 45.4 °F /  7.4 °C 45.2 °F /  7.3 °C 30.18in /  1021.9hPa North 6mph /  9.7km/h 16mph /  25.7km/h 99% 0.00in /  0mm 0 W/m2
02:10 45.3 °F /  7.4 °C 45.1 °F /  7.3 °C 30.18in /  1021.9hPa North 7mph /  11.3km/h 16mph /  25.7km/h 99% 0.00in /  0mm 0 W/m2
02:20 45.3 °F /  7.4 °C 45.1 °F /  7.3 °C 30.18in /  1021.9hPa North 8mph /  12.9km/h 15mph /  24.1km/h 99% 0.00in /  0mm 0 W/m2
02:30 45.5 °F /  7.5 °C 45.2 °F /  7.3 °C 30.18in /  1021.9hPa North 8mph /  12.9km/h 19mph /  30.6km/h 99% 0.00in /  0mm 0 W/m2
02:40 45.5 °F /  7.5 °C 45.2 °F /  7.3 °C 30.17in /  1021.6hPa North 7mph /  11.3km/h 19mph /  30.6km/h 99% 0.00in /  0mm 0 W/m2
02:50 45.5 °F /  7.5 °C 45.2 °F /  7.3 °C 30.18in /  1021.9hPa North 6mph /  9.7km/h 14mph /  22.5km/h 99% 0.00in /  0mm 0 W/m2
03:00 45.3 °F /  7.4 °C 45.1 °F /  7.3 °C 30.18in /  1021.9hPa North 6mph /  9.7km/h 13mph /  20.9km/h 99% 0.00in /  0mm 0 W/m2
03:10 45.3 °F /  7.4 °C 45.1 °F /  7.3 °C 30.18in /  1021.9hPa North 9mph /  14.5km/h 18mph /  29km/h 99% 0.00in /  0mm 0 W/m2
03:20 45.1 °F /  7.3 °C 44.9 °F /  7.2 °C 30.18in /  1021.9hPa North 6mph /  9.7km/h 15mph /  24.1km/h 99% 0.00in /  0mm 0 W/m2
03:30 45.1 °F /  7.3 °C 44.9 °F /  7.2 °C 30.17in /  1021.6hPa North 6mph /  9.7km/h 15mph /  24.1km/h 99% 0.00in /  0mm 0 W/m2
03:40 45 °F /  7.2 °C 44.8 °F /  7.1 °C 30.18in /  1021.9hPa North 6mph /  9.7km/h 15mph /  24.1km/h 99% 0.00in /  0mm 0 W/m2
03:50 45 °F /  7.2 °C 44.7 °F /  7.1 °C 30.17in /  1021.6hPa North 5mph /  8km/h 14mph /  22.5km/h 99% 0.00in /  0mm 0 W/m2
04:00 45 °F /  7.2 °C 44.7 °F /  7.1 °C 30.17in /  1021.6hPa North 6mph /  9.7km/h 17mph /  27.4km/h 99% 0.00in /  0mm 0 W/m2
04:10 45 °F /  7.2 °C 44.7 °F /  7.1 °C 30.17in /  1021.6hPa North 6mph /  9.7km/h 13mph /  20.9km/h 99% 0.00in /  0mm 0 W/m2
04:20 45 °F /  7.2 °C 44.7 °F /  7.1 °C 30.17in /  1021.6hPa North 6mph /  9.7km/h 13mph /  20.9km/h 99% 0.00in /  0mm 0 W/m2
04:30 44.9 °F /  7.2 °C 44.6 °F /  7 °C 30.17in /  1021.6hPa North 6mph /  9.7km/h 14mph /  22.5km/h 99% 0.00in /  0mm 0 W/m2
04:40 44.8 °F /  7.1 °C 44.5 °F /  6.9 °C 30.17in /  1021.6hPa North 7mph /  11.3km/h 13mph /  20.9km/h 99% 0.00in /  0mm 0 W/m2
04:50 44.8 °F /  7.1 °C 44.3 °F /  6.8 °C 30.16in /  1021.2hPa North 6mph /  9.7km/h 15mph /  24.1km/h 98% 0.00in /  0mm 0 W/m2
Knjazevac, Serbia
Compliments of Weather Underground - 2 mb